Time;durP1;ratioP1;P1;durP2;ratioP2;P2;SDS_P1;SDS_P2;PMS_P1;PMS_P2;Temp;Humidity;BMP_temperature;BMP_pressure;BME280_temperature;BME280_humidity;BME280_pressure;Samples;Min_cycle;Max_cycle;Signal;HPM_P1;HPM_P2
2023/10/12 00:02:09;;;;;;;1999.90;999.90;;;;;;;11.99;100.00;97987.09;18230532;32;20536;-58
2023/10/12 00:12:12;;;;;;;1999.90;999.90;;;;;;;11.95;100.00;97983.31;18240652;32;20129;-58
2023/10/12 00:22:15;;;;;;;1999.90;999.90;;;;;;;11.85;100.00;97981.37;18346389;31;20052;-58
2023/10/12 00:32:26;;;;;;;1999.90;999.90;;;;;;;11.68;100.00;97976.19;18637050;31;20064;-58
2023/10/12 00:42:59;;;;;;;1999.90;999.90;;;;;;;11.58;100.00;97967.25;18623286;31;20083;-58
2023/10/12 00:53:23;;;;;;;1999.90;999.90;;;;;;;11.53;100.00;97951.81;18635520;31;20067;-58
2023/10/12 01:03:37;;;;;;;1999.90;999.90;;;;;;;11.45;100.00;97953.16;18615684;31;20428;-58
2023/10/12 01:13:43;;;;;;;1999.90;999.90;;;;;;;11.39;100.00;97943.41;18620746;31;20132;-58
2023/10/12 01:23:50;;;;;;;1999.90;999.90;;;;;;;11.37;100.00;97942.84;18619019;31;20052;-58
2023/10/12 01:33:55;;;;;;;1999.90;999.90;;;;;;;11.11;100.00;97947.41;18618789;31;20092;-57
2023/10/12 01:43:57;;;;;;;;;;;;;;;11.09;100.00;97942.25;18632445;31;20052;-57
2023/10/12 01:54:05;;;;;;;1999.90;999.90;;;;;;;11.07;100.00;97935.47;18625959;31;19952;-58
2023/10/12 02:04:08;;;;;;;1999.90;999.90;;;;;;;11.02;100.00;97926.28;18617917;31;20061;-58
2023/10/12 02:14:23;;;;;;;1999.90;999.90;;;;;;;10.93;100.00;97929.75;18630503;31;20064;-57
2023/10/12 02:24:51;;;;;;;1999.90;999.90;;;;;;;10.79;100.00;97930.25;18630298;31;20088;-58
2023/10/12 02:35:11;;;;;;;1999.90;999.90;;;;;;;10.64;100.00;97919.38;18628423;31;20064;-57
2023/10/12 02:45:29;;;;;;;1999.90;999.90;;;;;;;10.55;100.00;97932.59;18628516;31;20075;-58
2023/10/12 02:55:58;;;;;;;1999.90;999.90;;;;;;;10.51;100.00;97932.31;18627743;31;20052;-57
2023/10/12 03:06:30;;;;;;;1999.90;999.90;;;;;;;10.36;100.00;97937.66;18627338;31;20044;-58
2023/10/12 03:16:37;;;;;;;1999.90;999.90;;;;;;;10.28;100.00;97932.69;18614127;31;20056;-58
2023/10/12 03:37:13;;;;;;;1999.90;999.90;;;;;;;10.13;100.00;97953.13;18625762;31;20394;-57
2023/10/12 03:47:23;;;;;;;1999.90;999.90;;;;;;;10.15;100.00;97964.50;18625720;31;20063;-58
2023/10/12 04:17:59;;;;;;;;;;;;;;;10.08;100.00;97947.69;18625431;31;20052;-58
2023/10/12 04:28:50;;;;;;;1999.90;999.90;;;;;;;9.86;100.00;97949.69;18625179;31;19968;-58
2023/10/12 04:38:46;;;;;;;1999.90;999.90;;;;;;;9.88;100.00;97964.59;18607252;31;20488;-57
2023/10/12 04:59:16;;;;;;;1999.90;999.90;;;;;;;10.00;100.00;97958.97;18633726;31;20056;-57
2023/10/12 05:09:18;;;;;;;1999.90;999.90;;;;;;;9.92;100.00;97962.16;18634654;31;20095;-57
2023/10/12 05:19:21;;;;;;;1999.90;999.90;;;;;;;9.87;100.00;97964.81;18634092;31;20097;-58
2023/10/12 05:39:27;;;;;;;1999.90;999.90;;;;;;;9.78;100.00;97972.59;18632629;31;20093;-57
2023/10/12 05:49:33;;;;;;;1999.90;999.90;;;;;;;9.81;100.00;98001.78;18632772;31;20480;-57
2023/10/12 05:59:38;;;;;;;1999.90;999.90;;;;;;;9.79;100.00;97993.94;18632247;31;20057;-57
2023/10/12 06:09:41;;;;;;;1999.90;999.90;;;;;;;9.90;100.00;98007.53;18630946;31;20060;-59
2023/10/12 06:19:44;;;;;;;1999.90;999.90;;;;;;;9.95;100.00;98018.38;18630601;31;20151;-59
2023/10/12 06:29:51;;;;;;;1999.90;999.90;;;;;;;9.95;100.00;98016.50;18629457;31;20448;-59
2023/10/12 06:50:18;;;;;;;1999.90;999.90;;;;;;;10.32;100.00;98037.31;18628561;31;20114;-59
2023/10/12 07:00:49;;;;;;;1999.90;999.90;;;;;;;10.55;100.00;98035.34;18627748;31;20076;-59
2023/10/12 07:10:54;;;;;;;1999.90;999.90;;;;;;;10.75;100.00;98040.06;18627383;31;20376;-59
2023/10/12 07:20:56;;;;;;;;;;;;;;;11.08;100.00;98051.56;18606212;31;20052;-59
2023/10/12 07:31:30;;;;;;;1999.90;999.90;;;;;;;11.30;100.00;98070.34;18626800;31;19987;-59
2023/10/12 07:41:41;;;;;;;1999.90;999.90;;;;;;;11.47;100.00;98072.84;18625671;31;20071;-59
2023/10/12 07:52:05;;;;;;;1999.90;999.90;;;;;;;11.70;100.00;98100.53;18626106;31;20052;-59
2023/10/12 08:02:15;;;;;;;1999.90;999.90;;;;;;;12.03;100.00;98095.75;18600847;31;20074;-59
2023/10/12 08:12:24;;;;;;;1999.90;999.90;;;;;;;12.60;100.00;98082.22;18625055;31;20095;-59
2023/10/12 08:22:29;;;;;;;1999.90;999.90;;;;;;;13.04;100.00;98085.09;18611290;31;20096;-57
2023/10/12 08:32:34;;;;;;;1999.90;999.90;;;;;;;13.64;100.00;98089.00;18632778;31;20052;-57
2023/10/12 08:42:37;;;;;;;1999.90;999.90;;;;;;;14.21;100.00;98082.09;18621928;31;20382;-57
2023/10/12 08:52:50;;;;;;;1999.90;999.90;;;;;;;14.78;100.00;98081.63;18635977;31;20056;-57
2023/10/12 09:02:53;;;;;;;1999.90;999.90;;;;;;;15.17;100.00;98101.66;18635445;31;20104;-57
2023/10/12 09:12:56;;;;;;;1999.90;999.90;;;;;;;15.63;100.00;98103.84;18620124;31;20418;-57
2023/10/12 09:23:06;;;;;;;1999.90;999.90;;;;;;;16.11;100.00;98085.78;18633938;31;20388;-59
2023/10/12 09:33:44;;;;;;;1999.90;999.90;;;;;;;16.53;100.00;98090.28;18633395;31;20090;-58
2023/10/12 09:43:39;;;;;;;1999.90;999.90;;;;;;;17.10;100.00;98094.75;18632120;31;20364;-58
2023/10/12 09:53:53;;;;;;;1999.90;999.90;;;;;;;17.49;100.00;98077.03;18632613;31;20044;-58
2023/10/12 10:04:27;;;;;;;1999.90;999.90;;;;;;;17.81;100.00;98061.56;18631305;31;20071;-59
2023/10/12 10:14:26;;;;;;;1999.90;999.90;;;;;;;18.27;100.00;98059.75;18627279;31;20086;-59
2023/10/12 10:24:46;;;;;;;1999.90;999.90;;;;;;;18.73;100.00;98053.09;18630269;31;20049;-59
2023/10/12 10:34:56;;;;;;;1999.90;999.90;;;;;;;19.12;100.00;98043.28;18629593;31;20060;-59
2023/10/12 10:45:12;;;;;;;1999.90;999.90;;;;;;;19.56;100.00;98048.91;18561968;32;20049;-59
2023/10/12 10:55:24;;;;;;;1999.90;999.90;;;;;;;20.36;100.00;98047.00;18562444;31;20416;-59
2023/10/12 11:05:28;;;;;;;1999.90;999.90;;;;;;;21.44;100.00;98035.00;18561118;32;20083;-59
2023/10/12 11:15:32;;;;;;;1999.90;999.90;;;;;;;21.49;100.00;98034.81;18561778;32;20052;-59
2023/10/12 11:25:45;;;;;;;1999.90;999.90;;;;;;;21.78;93.41;98027.69;18561499;31;20104;-59
2023/10/12 11:35:48;;;;;;;1999.90;999.90;;;;;;;22.23;93.68;98015.12;18560756;31;20079;-59
2023/10/12 11:46:01;;;;;;;1999.90;999.90;;;;;;;22.97;80.62;98015.34;18546407;32;20052;-59
2023/10/12 11:56:17;;;;;;;1999.90;999.90;;;;;;;23.26;78.65;98003.28;18560495;32;20056;-59
2023/10/12 12:06:25;;;;;;;1999.90;999.90;;;;;;;23.31;83.49;97986.50;18568654;31;20075;-59
2023/10/12 12:16:28;;;;;;;1999.90;999.90;;;;;;;23.67;97.90;97987.59;18570787;32;20066;-59
2023/10/12 12:26:33;;;;;;;1999.90;999.90;;;;;;;24.25;66.79;97969.09;18571070;32;20053;-59
2023/10/12 12:36:39;;;;;;;1999.90;999.90;;;;;;;24.21;78.19;97959.91;18571574;31;20078;-59
2023/10/12 12:46:41;;;;;;;1999.90;999.90;;;;;;;24.29;77.92;97956.97;18634371;31;20405;-59
2023/10/12 12:56:46;;;;;;;1999.90;999.90;;;;;;;24.34;57.76;97948.44;18635660;31;20115;-59
2023/10/12 13:06:51;;;;;;;1999.90;999.90;;;;;;;24.36;70.94;97943.34;18634999;31;20052;-59
2023/10/12 13:17:09;;;;;;;1999.90;999.90;;;;;;;24.10;62.24;97943.84;18634298;31;20372;-59
2023/10/12 13:27:19;;;;;;;1999.90;999.90;;;;;;;24.00;85.13;97934.09;18619860;31;20044;-59
2023/10/12 13:37:22;;;;;;;1999.90;999.90;;;;;;;23.59;81.77;97932.53;18633128;31;20109;-59
2023/10/12 13:47:25;;;;;;;1999.90;999.90;;;;;;;23.28;85.20;97929.28;18626232;31;20096;-59
2023/10/12 13:57:28;;;;;;;1999.90;999.90;;;;;;;22.97;79.58;97916.88;18617732;31;20086;-59
2023/10/12 14:07:34;;;;;;;1999.90;999.90;;;;;;;22.70;96.41;97917.56;18631218;31;20128;-59
2023/10/12 14:17:38;;;;;;;1999.90;999.90;;;;;;;22.73;94.32;97912.16;18630815;31;20079;-59
2023/10/12 14:27:42;;;;;;;1999.90;999.90;;;;;;;22.61;97.25;97906.66;18602569;31;20079;-59
2023/10/12 14:37:45;;;;;;;1999.90;999.90;;;;;;;22.49;97.57;97896.44;18622614;31;20079;-59
2023/10/12 14:47:49;;;;;;;;;;;;;;;22.36;100.00;97892.06;18629123;31;20445;-59
2023/10/12 14:57:52;;;;;;;;;;;;;;;22.05;100.00;97885.91;18629098;31;19943;-59
2023/10/12 15:07:55;;;;;;;1999.90;999.90;;;;;;;21.79;100.00;97881.47;18628511;31;19951;-59
2023/10/12 15:17:59;;;;;;;1999.90;999.90;;;;;;;21.53;100.00;97878.97;18612804;31;20352;-59
2023/10/12 15:28:03;;;;;;;1999.90;999.90;;;;;;;21.43;100.00;97880.16;18626512;31;20376;-59
2023/10/12 15:38:06;;;;;;;1999.90;999.90;;;;;;;21.25;100.00;97879.47;18625203;31;20063;-58
2023/10/12 15:48:09;;;;;;;1999.90;999.90;;;;;;;21.09;100.00;97889.44;18611386;31;20108;-59
2023/10/12 15:58:11;;;;;;;;;;;;;;;20.97;100.00;97890.19;18625520;31;20113;-59
2023/10/12 16:08:16;;;;;;;1999.90;999.90;;;;;;;20.70;100.00;97877.75;18611606;31;19948;-59
2023/10/12 16:18:19;;;;;;;1999.90;999.90;;;;;;;20.39;100.00;97870.56;18624511;31;20053;-59
2023/10/12 16:28:22;;;;;;;1999.90;999.90;;;;;;;20.03;100.00;97885.56;18624148;31;20076;-59
2023/10/12 16:38:25;;;;;;;1999.90;999.90;;;;;;;19.60;100.00;97896.25;18624006;31;20086;-58
2023/10/12 16:48:31;;;;;;;1999.90;999.90;;;;;;;19.13;100.00;97898.84;18625913;31;20143;-59
2023/10/12 16:58:34;;;;;;;1999.90;999.90;;;;;;;18.71;100.00;97903.88;18635456;31;20546;-58
2023/10/12 17:08:40;;;;;;;1999.90;999.90;;;;;;;18.18;100.00;97903.66;18621144;31;20070;-58
2023/10/12 17:18:45;;;;;;;1999.90;999.90;;;;;;;17.81;100.00;97919.34;18628142;31;20112;-59
2023/10/12 17:28:48;;;;;;;1999.90;999.90;;;;;;;17.41;100.00;97935.63;18619357;31;20048;-58
2023/10/12 17:38:55;;;;;;;1999.90;999.90;;;;;;;17.04;100.00;97938.31;18633313;31;20056;-58
2023/10/12 17:48:58;;;;;;;1999.90;999.90;;;;;;;16.64;100.00;97951.69;18633184;31;20075;-59
2023/10/12 17:59:00;;;;;;;1999.90;999.90;;;;;;;16.39;100.00;97955.69;18631677;31;20040;-59
2023/10/12 18:09:04;;;;;;;1999.90;999.90;;;;;;;16.30;100.00;97965.69;18617287;31;20429;-59
2023/10/12 18:19:07;;;;;;;;;;;;;;;16.16;100.00;97958.28;18630930;31;20069;-59
2023/10/12 18:29:10;;;;;;;1999.90;999.90;;;;;;;16.03;100.00;97953.59;18630823;31;19940;-58
2023/10/12 18:39:13;;;;;;;1999.90;999.90;;;;;;;15.88;100.00;97958.22;18614998;31;20048;-58
2023/10/12 18:49:16;;;;;;;1999.90;999.90;;;;;;;15.80;100.00;97958.87;18628731;31;20052;-59
2023/10/12 18:59:19;;;;;;;1999.90;999.90;;;;;;;15.69;100.00;97977.28;18628266;31;20071;-59
2023/10/12 19:09:22;;;;;;;1999.90;999.90;;;;;;;15.85;100.00;97980.59;18620736;31;20495;-58
2023/10/12 19:19:25;;;;;;;1999.90;999.90;;;;;;;15.86;100.00;97976.75;18626684;31;20063;-59
2023/10/12 19:29:28;;;;;;;1999.90;999.90;;;;;;;15.86;100.00;97987.66;18612783;31;20047;-59
2023/10/12 19:39:30;;;;;;;1999.90;999.90;;;;;;;15.71;100.00;97998.78;18625736;31;20061;-58
2023/10/12 19:49:34;;;;;;;1999.90;999.90;;;;;;;15.66;100.00;97999.66;18625556;31;20053;-58
2023/10/12 19:59:39;;;;;;;1999.90;999.90;;;;;;;15.52;100.00;97996.87;18625310;31;20103;-59
2023/10/12 20:09:41;;;;;;;1999.90;999.90;;;;;;;15.52;100.00;97988.69;18625287;31;20063;-59
2023/10/12 20:19:45;;;;;;;1999.90;999.90;;;;;;;15.43;100.00;97995.94;18624942;31;20095;-58
2023/10/12 20:29:49;;;;;;;1999.90;999.90;;;;;;;15.27;100.00;97986.34;18636137;31;20093;-59
2023/10/12 20:39:52;;;;;;;1999.90;999.90;;;;;;;15.20;100.00;97984.78;18636728;31;20065;-58
2023/10/12 20:49:56;;;;;;;1999.90;999.90;;;;;;;15.04;100.00;97988.78;18621822;31;20075;-58
2023/10/12 20:59:58;;;;;;;1999.90;999.90;;;;;;;15.04;100.00;98005.94;18614248;31;20052;-58
2023/10/12 21:10:01;;;;;;;1999.90;999.90;;;;;;;15.07;100.00;97999.09;18634951;31;20060;-58
2023/10/12 21:20:28;;;;;;;1999.90;999.90;;;;;;;15.04;100.00;97996.97;18634444;31;20068;-58
2023/10/12 21:30:33;;;;;;;1999.90;999.90;;;;;;;15.04;100.00;97994.25;18622581;31;20092;-59
2023/10/12 21:40:45;;;;;;;1999.90;999.90;;;;;;;14.86;100.00;97996.63;18632509;31;20052;-58
2023/10/12 21:50:48;;;;;;;1999.90;999.90;;;;;;;14.83;100.00;97983.59;18632723;31;20139;-59
2023/10/12 22:00:56;;;;;;;1999.90;999.90;;;;;;;14.68;100.00;97970.97;18631862;31;20053;-58
2023/10/12 22:10:59;;;;;;;1999.90;999.90;;;;;;;14.52;100.00;97966.75;18631370;31;20060;-58
2023/10/12 22:21:03;;;;;;;1999.90;999.90;;;;;;;14.33;100.00;97947.62;18616335;31;20052;-58
2023/10/12 22:31:18;;;;;;;1999.90;999.90;;;;;;;14.11;100.00;97940.78;18630123;31;20402;-58
2023/10/12 22:41:43;;;;;;;1999.90;999.90;;;;;;;13.98;100.00;97942.25;18614308;31;20056;-58
2023/10/12 22:51:54;;;;;;;1999.90;999.90;;;;;;;13.72;100.00;97939.75;18608324;31;20056;-58
2023/10/12 23:01:57;;;;;;;1999.90;999.90;;;;;;;13.53;100.00;97947.75;18628300;31;20052;-58
2023/10/12 23:12:09;;;;;;;1999.90;999.90;;;;;;;13.22;100.00;97957.97;18628056;31;20053;-58
2023/10/12 23:32:20;;;;;;;1999.90;999.90;;;;;;;13.07;100.00;97958.06;18626668;31;20514;-59
2023/10/12 23:42:23;;;;;;;1999.90;999.90;;;;;;;12.96;100.00;97960.00;18625818;31;20052;-58
2023/10/12 23:52:27;;;;;;;1999.90;999.90;;;;;;;12.78;100.00;97962.25;18625381;31;20349;-59
